San Jose del Cabo (SJD/MMSD)

Map

Destinations

Information

Location
San Jose del Cabo, Baja California Sur, Mexico
Local Time
22:42 / 10:42 pm
GMT Time
05:42 / 5:42 am
Gates
Unassigned
No FAA reported delays
METAR MMSD 190349Z 28002KT 12SM SKC 27/22 A2987 RMK CU
TAF TAF MMSD 181649Z 1818/1918 15015KT P6SM SKC BECMG 1902/1903 00000KT FM191500 15010KT P6SM SKC